Time;durP1;ratioP1;P1;durP2;ratioP2;P2;SDS_P1;SDS_P2;PMS_P1;PMS_P2;Temp;Humidity;BMP_temperature;BMP_pressure;BME280_temperature;BME280_humidity;BME280_pressure;Samples;Min_cycle;Max_cycle;Signal;HPM_P1;HPM_P2
2021/03/23 00:00:42;;;;;;;5.05;2.92;;;6.70;98.70;;;;;;5060051;28;20086;-83
2021/03/23 00:03:17;;;;;;;6.90;3.30;;;6.90;99.10;;;;;;5066630;28;20032;-83
2021/03/23 00:05:46;;;;;;;5.05;2.72;;;7.10;99.30;;;;;;5064250;28;20109;-83
2021/03/23 00:08:36;;;;;;;6.95;3.00;;;6.70;99.60;;;;;;5046806;28;20033;-83
2021/03/23 00:11:10;;;;;;;5.78;3.20;;;6.70;99.20;;;;;;5069167;28;20033;-84
2021/03/23 00:13:38;;;;;;;9.35;3.05;;;6.60;99.10;;;;;;5064617;28;20503;-83
2021/03/23 00:16:06;;;;;;;9.13;3.50;;;7.70;99.50;;;;;;5061555;28;20074;-83
2021/03/23 00:18:33;;;;;;;11.70;4.20;;;6.70;99.20;;;;;;5065661;28;20039;-83
2021/03/23 00:20:59;;;;;;;7.40;3.42;;;6.70;99.30;;;;;;5043850;28;20033;-83
2021/03/23 00:23:26;;;;;;;10.25;3.53;;;8.10;99.70;;;;;;5072530;28;20040;-84
2021/03/23 00:25:53;;;;;;;8.07;3.70;;;6.80;99.20;;;;;;5075884;28;20072;-84
2021/03/23 00:28:23;;;;;;;8.43;3.63;;;6.80;99.20;;;;;;5087728;28;20583;-84
2021/03/23 00:30:53;;;;;;;7.20;3.15;;;6.80;99.20;;;;;;5058492;28;20035;-84
2021/03/23 00:33:20;;;;;;;7.30;3.72;;;7.10;99.30;;;;;;5072058;28;20051;-84
2021/03/23 00:35:53;;;;;;;6.30;3.80;;;7.40;99.30;;;;;;5064923;28;20033;-84
2021/03/23 00:38:32;;;;;;;8.70;3.22;;;6.80;99.20;;;;;;5073801;28;20043;-85
2021/03/23 00:41:20;;;;;;;;;;;;;;;;;;;;;
2021/03/23 00:43:57;;;;;;;9.53;3.40;;;7.40;99.60;;;;;;5056731;28;20048;-85
2021/03/23 00:46:47;;;;;;;7.50;3.63;;;6.70;99.60;;;;;;5037242;28;20412;-85
2021/03/23 00:49:29;;;;;;;7.80;3.45;;;6.80;99.50;;;;;;5079026;28;20044;-84
2021/03/23 00:52:16;;;;;;;;;;;;;;;;;;;;;
2021/03/23 00:55:28;;;;;;;;;;;;;;;;;;;;;
2021/03/23 00:58:24;;;;;;;7.80;2.75;;;6.80;99.60;;;;;;5093408;28;20056;-84
2021/03/23 01:00:56;;;;;;;5.38;3.40;;;6.80;99.40;;;;;;5060363;28;20039;-83
2021/03/23 01:03:22;;;;;;;6.75;3.22;;;;;;;;;;5082077;28;20043;-83
2021/03/23 01:05:53;;;;;;;5.47;3.00;;;6.70;99.10;;;;;;5072018;28;20036;-78
2021/03/23 01:08:19;;;;;;;6.25;2.92;;;6.80;99.50;;;;;;5086768;28;20060;-77
2021/03/23 01:10:45;;;;;;;10.85;3.17;;;6.80;99.50;;;;;;5073977;28;20460;-77
2021/03/23 01:13:11;;;;;;;6.95;3.25;;;6.80;99.50;;;;;;5094732;28;20028;-77
2021/03/23 01:15:37;;;;;;;6.82;3.25;;;6.70;99.50;;;;;;5084129;28;20537;-77
2021/03/23 01:18:03;;;;;;;7.45;3.05;;;6.90;99.50;;;;;;5086155;28;20028;-77
2021/03/23 01:20:30;;;;;;;5.15;3.17;;;6.80;99.50;;;;;;5057427;28;20109;-77
2021/03/23 01:22:57;;;;;;;7.45;3.20;;;6.80;99.50;;;;;;5093651;28;20036;-77
2021/03/23 01:25:24;;;;;;;7.28;3.35;;;6.80;99.50;;;;;;5087999;28;20036;-77
2021/03/23 01:27:50;;;;;;;8.00;3.40;;;6.80;99.50;;;;;;5075126;28;20070;-77
2021/03/23 01:30:20;;;;;;;7.53;2.97;;;6.80;99.50;;;;;;5086789;28;20032;-76
2021/03/23 01:32:46;;;;;;;5.43;2.67;;;6.80;99.60;;;;;;5091676;28;20059;-76
2021/03/23 01:35:12;;;;;;;10.05;3.85;;;6.80;99.60;;;;;;5093868;28;20425;-78
2021/03/23 01:37:38;;;;;;;7.55;3.60;;;6.80;99.60;;;;;;5085885;28;20094;-78
2021/03/23 01:40:05;;;;;;;7.88;3.13;;;7.30;99.80;;;;;;5089735;28;20040;-78
2021/03/23 01:42:51;;;;;;;7.50;3.72;;;6.80;99.70;;;;;;5068563;28;20046;-78
2021/03/23 01:45:22;;;;;;;7.82;3.30;;;6.80;99.70;;;;;;5090686;28;20052;-78
2021/03/23 01:47:49;;;;;;;8.73;4.63;;;6.70;99.70;;;;;;5080554;28;20119;-78
2021/03/23 01:50:17;;;;;;;12.25;4.57;;;6.80;99.70;;;;;;5083807;28;20450;-78
2021/03/23 01:52:47;;;;;;;14.15;4.45;;;6.80;99.70;;;;;;5066855;28;20454;-78
2021/03/23 01:55:13;;;;;;;11.18;4.70;;;6.90;99.70;;;;;;5065938;28;20082;-78
2021/03/23 01:57:41;;;;;;;10.65;5.20;;;6.90;99.80;;;;;;5093471;28;20571;-77
2021/03/23 02:00:09;;;;;;;11.05;5.10;;;6.70;99.70;;;;;;5093786;28;20036;-78
2021/03/23 02:02:40;;;;;;;13.85;5.25;;;6.70;99.80;;;;;;5093765;28;20476;-78
2021/03/23 02:05:11;;;;;;;11.15;5.60;;;6.60;99.80;;;;;;5093816;28;20032;-78
2021/03/23 02:07:40;;;;;;;10.88;5.38;;;6.60;99.80;;;;;;5058692;28;20089;-78
2021/03/23 02:10:07;;;;;;;10.48;5.50;;;6.60;99.80;;;;;;5088463;28;20540;-78
2021/03/23 02:12:33;;;;;;;13.15;5.18;;;6.60;99.90;;;;;;5088778;28;20194;-78
2021/03/23 02:14:59;;;;;;;9.40;5.40;;;6.50;99.90;;;;;;5075630;28;20422;-78
2021/03/23 02:17:35;;;;;;;11.88;5.55;;;6.50;99.90;;;;;;5093481;28;20040;-78
2021/03/23 02:20:15;;;;;;;11.27;5.65;;;6.40;99.90;;;;;;5080495;28;20094;-78
2021/03/23 02:22:49;;;;;;;10.75;5.28;;;6.40;99.90;;;;;;5081476;28;20081;-78
2021/03/23 02:25:27;;;;;;;11.30;5.25;;;6.30;99.90;;;;;;5089761;28;20046;-77
2021/03/23 02:27:53;;;;;;;11.13;5.78;;;6.30;99.90;;;;;;5049848;28;20045;-77
2021/03/23 02:30:34;;;;;;;12.20;5.80;;;6.30;99.90;;;;;;5072850;28;20096;-78
2021/03/23 02:33:01;;;;;;;13.05;5.47;;;6.20;99.90;;;;;;5088545;28;20032;-78
2021/03/23 02:35:27;;;;;;;13.82;5.32;;;6.20;99.90;;;;;;5071611;28;20064;-78
2021/03/23 02:37:53;;;;;;;15.50;6.47;;;6.20;99.90;;;;;;5082976;28;20040;-78
2021/03/23 02:40:18;;;;;;;9.18;5.47;;;6.20;99.90;;;;;;5074820;28;20490;-78
2021/03/23 02:42:44;;;;;;;10.10;5.22;;;6.10;99.90;;;;;;5073444;28;20124;-79
2021/03/23 02:45:11;;;;;;;11.23;5.63;;;6.20;99.90;;;;;;5070702;28;20078;-78
2021/03/23 02:47:36;;;;;;;12.52;5.90;;;6.20;99.90;;;;;;5089936;28;20036;-78
2021/03/23 02:50:04;;;;;;;12.75;5.88;;;6.20;99.90;;;;;;5056191;28;20028;-79
2021/03/23 02:52:31;;;;;;;13.55;5.93;;;6.20;99.90;;;;;;5079859;28;20507;-78
2021/03/23 02:54:57;;;;;;;12.68;5.85;;;6.20;99.90;;;;;;5077736;28;20040;-78
2021/03/23 02:57:28;;;;;;;13.68;6.00;;;6.30;99.90;;;;;;5087789;28;20032;-79
2021/03/23 02:59:54;;;;;;;11.90;5.82;;;6.60;99.90;;;;;;5092917;28;20097;-79
2021/03/23 03:02:19;;;;;;;15.40;6.22;;;6.30;99.90;;;;;;5079560;28;20424;-79
2021/03/23 03:04:45;;;;;;;11.05;5.90;;;6.70;99.90;;;;;;5092850;28;20036;-78
2021/03/23 03:07:12;;;;;;;14.10;6.90;;;6.30;99.90;;;;;;5072923;28;20060;-79
2021/03/23 03:09:37;;;;;;;12.27;5.85;;;6.30;99.90;;;;;;5090426;28;20066;-79
2021/03/23 03:12:04;;;;;;;12.52;6.20;;;6.30;99.90;;;;;;5072666;28;20056;-77
2021/03/23 03:14:30;;;;;;;15.15;6.22;;;6.30;99.90;;;;;;5089741;28;20036;-77
2021/03/23 03:16:55;;;;;;;11.85;6.78;;;6.30;99.90;;;;;;5041133;28;20040;-78
2021/03/23 03:19:21;;;;;;;15.88;6.55;;;6.40;99.90;;;;;;5072476;28;20063;-78
2021/03/23 03:21:47;;;;;;;13.93;6.72;;;6.70;99.90;;;;;;5054346;28;20082;-78
2021/03/23 03:24:13;;;;;;;17.85;7.03;;;6.30;99.90;;;;;;5085164;28;20036;-78
2021/03/23 03:26:39;;;;;;;14.80;7.20;;;6.40;99.90;;;;;;5092042;28;20509;-78
2021/03/23 03:29:05;;;;;;;14.75;7.25;;;6.40;99.90;;;;;;5072332;28;20077;-78
2021/03/23 03:31:31;;;;;;;13.57;6.90;;;7.00;99.90;;;;;;5092202;28;20103;-79
2021/03/23 03:33:59;;;;;;;16.65;7.35;;;6.40;99.90;;;;;;5072493;28;20033;-78
2021/03/23 03:36:27;;;;;;;15.43;7.68;;;6.40;99.90;;;;;;5068120;28;20116;-76
2021/03/23 03:38:53;;;;;;;18.38;7.72;;;6.40;99.90;;;;;;5092033;28;20042;-76
2021/03/23 03:41:20;;;;;;;17.85;8.18;;;6.40;99.90;;;;;;5073254;28;20040;-77
2021/03/23 03:43:46;;;;;;;15.07;8.05;;;6.50;99.90;;;;;;5088423;28;20032;-77
2021/03/23 03:46:12;;;;;;;15.70;7.38;;;6.40;99.90;;;;;;5096364;28;20044;-77
2021/03/23 03:48:38;;;;;;;14.68;8.35;;;6.40;99.90;;;;;;5078257;28;20165;-77
2021/03/23 03:51:05;;;;;;;17.17;8.43;;;6.40;99.90;;;;;;5078055;28;20032;-75
2021/03/23 03:53:32;;;;;;;16.27;7.93;;;6.40;99.90;;;;;;5094879;28;20036;-77
2021/03/23 03:56:00;;;;;;;20.25;8.68;;;7.10;99.90;;;;;;5078768;28;20036;-77
2021/03/23 03:58:25;;;;;;;14.30;8.98;;;6.40;99.90;;;;;;5078018;28;20063;-78
2021/03/23 04:00:51;;;;;;;18.10;9.32;;;6.40;99.90;;;;;;5073420;28;20059;-78
2021/03/23 04:03:26;;;;;;;18.42;9.27;;;6.40;99.90;;;;;;5090367;28;20074;-77
2021/03/23 04:05:55;;;;;;;17.80;8.88;;;6.40;99.90;;;;;;5085628;28;20056;-78
2021/03/23 04:08:25;;;;;;;15.45;9.25;;;6.40;99.90;;;;;;5096282;28;20400;-78
2021/03/23 04:10:52;;;;;;;19.52;9.35;;;7.50;99.90;;;;;;5087862;28;20449;-78
2021/03/23 04:13:21;;;;;;;19.63;9.65;;;7.00;99.90;;;;;;5089829;28;20050;-78
2021/03/23 04:15:48;;;;;;;20.02;10.00;;;6.50;99.90;;;;;;5087483;28;20051;-78
2021/03/23 04:18:17;;;;;;;19.08;10.20;;;6.40;99.90;;;;;;5072145;28;20032;-78
2021/03/23 04:20:45;;;;;;;15.45;10.30;;;7.00;99.90;;;;;;5068905;28;20089;-77
2021/03/23 04:23:20;;;;;;;19.42;10.55;;;6.40;99.90;;;;;;5056079;28;20060;-76
2021/03/23 04:25:46;;;;;;;21.15;10.45;;;6.40;99.90;;;;;;5087213;28;20650;-75
2021/03/23 04:28:12;;;;;;;22.00;11.02;;;6.40;99.90;;;;;;5086260;28;20044;-76
2021/03/23 04:30:38;;;;;;;20.77;11.40;;;6.50;99.90;;;;;;5095667;28;20032;-75
2021/03/23 04:33:03;;;;;;;25.73;11.70;;;6.40;99.90;;;;;;5069367;28;20503;-75
2021/03/23 04:35:44;;;;;;;21.75;11.18;;;6.40;99.90;;;;;;5076108;28;20028;-75
2021/03/23 04:38:11;;;;;;;20.45;11.93;;;6.40;99.90;;;;;;5095129;28;20486;-75
2021/03/23 04:40:39;;;;;;;20.48;12.07;;;6.40;99.90;;;;;;5095589;28;20071;-76
2021/03/23 04:43:06;;;;;;;23.33;11.85;;;6.60;99.90;;;;;;5095344;28;20060;-76
2021/03/23 04:45:32;;;;;;;22.63;10.85;;;6.40;99.90;;;;;;5095136;28;20487;-76
2021/03/23 04:47:58;;;;;;;24.23;11.52;;;6.80;99.90;;;;;;5095125;28;20111;-76
2021/03/23 04:50:24;;;;;;;22.38;11.98;;;6.40;99.90;;;;;;5070685;28;20032;-75
2021/03/23 04:52:50;;;;;;;22.20;11.52;;;6.40;99.90;;;;;;5076687;28;20043;-75
2021/03/23 04:55:17;;;;;;;26.10;12.52;;;6.50;99.90;;;;;;5075248;28;20101;-75
2021/03/23 04:57:43;;;;;;;22.65;11.68;;;6.40;99.90;;;;;;5076791;28;20040;-75
2021/03/23 05:00:12;;;;;;;27.73;12.93;;;6.40;99.90;;;;;;5090958;28;20080;-76
2021/03/23 05:02:38;;;;;;;27.80;12.73;;;6.40;99.90;;;;;;5090727;28;20515;-76
2021/03/23 05:05:06;;;;;;;26.67;12.40;;;6.40;99.90;;;;;;5075387;28;20056;-76
2021/03/23 05:07:32;;;;;;;24.67;12.93;;;6.40;99.90;;;;;;5094903;28;20107;-76
2021/03/23 05:09:58;;;;;;;26.52;12.50;;;6.40;99.90;;;;;;5075003;28;20123;-76
2021/03/23 05:12:24;;;;;;;24.83;12.98;;;6.40;99.90;;;;;;5076571;28;20451;-75
2021/03/23 05:14:49;;;;;;;27.50;14.35;;;6.40;99.90;;;;;;5087194;28;20029;-75
2021/03/23 05:17:16;;;;;;;25.75;13.88;;;7.10;99.90;;;;;;5091802;28;20408;-75
2021/03/23 05:19:41;;;;;;;28.45;13.90;;;6.90;99.90;;;;;;5094852;28;20036;-75
2021/03/23 05:22:08;;;;;;;24.80;12.48;;;6.40;99.90;;;;;;5076445;28;20039;-75
2021/03/23 05:24:33;;;;;;;26.77;14.43;;;6.40;99.90;;;;;;5076482;28;20038;-75
2021/03/23 05:26:59;;;;;;;29.70;13.57;;;6.30;99.90;;;;;;5061848;28;20053;-75
2021/03/23 05:29:25;;;;;;;23.30;12.48;;;6.30;99.90;;;;;;5070858;28;20032;-75
2021/03/23 05:31:51;;;;;;;23.55;13.18;;;6.30;99.90;;;;;;5074434;28;20033;-76
2021/03/23 05:34:19;;;;;;;22.85;13.63;;;6.40;99.90;;;;;;5064213;28;20037;-75
2021/03/23 05:36:45;;;;;;;26.80;13.65;;;6.30;99.90;;;;;;5072701;28;20139;-75
2021/03/23 05:39:18;;;;;;;24.63;13.18;;;6.30;99.90;;;;;;5070256;28;20160;-75
2021/03/23 05:42:06;;;;;;;25.23;13.63;;;6.30;99.90;;;;;;5072031;28;20044;-75
2021/03/23 05:45:03;;;;;;;26.02;12.98;;;6.30;99.90;;;;;;5063545;28;20045;-74
2021/03/23 05:47:38;;;;;;;20.92;12.40;;;6.30;99.90;;;;;;5060701;28;20063;-76
2021/03/23 05:50:10;;;;;;;22.58;12.45;;;6.30;99.90;;;;;;5072218;28;20024;-76
2021/03/23 05:52:48;;;;;;;21.23;12.90;;;6.30;99.90;;;;;;5070113;28;20093;-78
2021/03/23 05:55:28;;;;;;;20.90;11.85;;;6.20;99.90;;;;;;5069259;28;20041;-77
2021/03/23 05:57:57;;;;;;;26.67;12.93;;;6.20;99.90;;;;;;5071937;28;20059;-76
2021/03/23 06:00:27;;;;;;;22.88;13.48;;;6.40;99.90;;;;;;5066161;28;20063;-78
2021/03/23 06:03:12;;;;;;;25.65;13.85;;;6.20;99.90;;;;;;5073715;28;20036;-76
2021/03/23 06:05:39;;;;;;;30.75;14.40;;;6.20;99.90;;;;;;5072415;28;20048;-76
2021/03/23 06:08:36;;;;;;;26.48;14.95;;;6.20;99.90;;;;;;5073416;28;20060;-76
2021/03/23 06:11:08;;;;;;;32.85;15.02;;;6.20;99.90;;;;;;5062833;28;20052;-74
2021/03/23 06:13:53;;;;;;;28.58;15.43;;;6.10;99.90;;;;;;5071134;28;20595;-75
2021/03/23 06:16:50;;;;;;;34.83;15.32;;;6.20;99.90;;;;;;5066680;28;20032;-80
2021/03/23 06:19:25;;;;;;;32.15;18.17;;;6.20;99.90;;;;;;5065220;28;20101;-80
2021/03/23 06:22:13;;;;;;;39.00;18.75;;;6.20;99.90;;;;;;5068922;28;20110;-75
2021/03/23 06:24:47;;;;;;;34.00;18.55;;;6.20;99.90;;;;;;5068714;28;20052;-81
2021/03/23 06:27:28;;;;;;;41.88;20.05;;;6.20;99.90;;;;;;5079179;28;20116;-82
2021/03/23 06:30:03;;;;;;;48.97;22.30;;;6.20;99.90;;;;;;5092474;28;20032;-81
2021/03/23 06:32:42;;;;;;;44.20;21.88;;;6.20;99.90;;;;;;5074080;28;20039;-82
2021/03/23 06:35:13;;;;;;;51.70;26.58;;;6.20;99.90;;;;;;5079928;28;20043;-81
2021/03/23 06:37:40;;;;;;;65.75;29.50;;;6.20;99.90;;;;;;5091438;28;20110;-81
2021/03/23 06:40:30;;;;;;;62.55;30.60;;;6.20;99.90;;;;;;5073879;28;20036;-80
2021/03/23 06:43:05;;;;;;;66.65;31.00;;;6.20;99.90;;;;;;5087976;28;20141;-76
2021/03/23 06:45:37;;;;;;;65.22;33.22;;;6.30;99.90;;;;;;5090777;28;20043;-75
2021/03/23 06:48:28;;;;;;;67.85;31.92;;;6.20;99.90;;;;;;5084570;28;20119;-76
2021/03/23 06:51:08;;;;;;;78.20;33.75;;;6.30;99.90;;;;;;5071304;28;20032;-76
2021/03/23 06:53:38;;;;;;;74.40;34.08;;;6.30;99.90;;;;;;5087625;28;20040;-76
2021/03/23 06:56:28;;;;;;;74.15;33.55;;;6.30;99.90;;;;;;5092659;28;20068;-76
2021/03/23 06:59:19;;;;;;;76.40;36.15;;;6.30;99.90;;;;;;5076486;28;20033;-76
2021/03/23 07:02:25;;;;;;;74.95;33.10;;;6.30;99.90;;;;;;5074194;28;20114;-76
2021/03/23 07:04:51;;;;;;;79.03;34.17;;;6.40;99.90;;;;;;5090575;28;20039;-78
2021/03/23 07:07:20;;;;;;;74.82;35.40;;;6.40;99.90;;;;;;5074073;28;20035;-79
2021/03/23 07:09:54;;;;;;;73.97;34.08;;;6.60;99.90;;;;;;5092465;28;20036;-79
2021/03/23 07:12:38;;;;;;;76.43;34.33;;;6.50;99.90;;;;;;5089413;28;20071;-79
2021/03/23 07:15:21;;;;;;;72.07;35.85;;;6.50;99.90;;;;;;5089209;28;20039;-74
2021/03/23 07:17:51;;;;;;;71.88;34.65;;;6.50;99.90;;;;;;5073393;28;20051;-75
2021/03/23 07:20:27;;;;;;;71.50;34.80;;;6.60;99.90;;;;;;5090191;28;20093;-78
2021/03/23 07:22:54;;;;;;;74.13;36.65;;;6.60;99.90;;;;;;5074036;28;20039;-78
2021/03/23 07:25:40;;;;;;;65.43;33.78;;;6.60;99.90;;;;;;5082501;28;20123;-80
2021/03/23 07:28:51;;;;;;;66.68;35.03;;;6.60;99.90;;;;;;5090486;28;20056;-75
2021/03/23 07:31:32;;;;;;;70.47;34.10;;;6.70;99.90;;;;;;5061865;28;20520;-75
2021/03/23 07:34:21;;;;;;;70.03;35.92;;;6.70;99.90;;;;;;5083579;28;20039;-75
2021/03/23 07:36:49;;;;;;;72.82;34.90;;;6.70;99.90;;;;;;5085064;28;20040;-75
2021/03/23 07:39:34;;;;;;;69.05;36.28;;;6.70;99.90;;;;;;5070287;28;20036;-80
2021/03/23 07:42:25;;;;;;;70.82;34.88;;;6.80;99.90;;;;;;5089669;28;20483;-79
2021/03/23 07:45:06;;;;;;;73.95;36.47;;;6.90;99.90;;;;;;5089008;28;20062;-80
2021/03/23 07:47:44;;;;;;;76.72;35.63;;;6.90;99.90;;;;;;5087957;28;20047;-75
2021/03/23 07:50:17;;;;;;;71.95;34.88;;;6.90;99.90;;;;;;5088060;28;20028;-75
2021/03/23 07:52:49;;;;;;;78.45;36.33;;;7.00;99.90;;;;;;5070679;28;20120;-75
2021/03/23 07:55:21;;;;;;;72.95;34.83;;;7.20;99.90;;;;;;5088525;28;20039;-75
2021/03/23 07:58:26;;;;;;;74.78;37.40;;;7.10;99.90;;;;;;5088685;28;20066;-75
2021/03/23 08:01:12;;;;;;;67.13;35.33;;;7.10;99.90;;;;;;5030084;28;20410;-75
2021/03/23 08:03:43;;;;;;;65.20;34.83;;;7.20;99.90;;;;;;5084422;28;20389;-80
2021/03/23 08:06:15;;;;;;;63.42;35.55;;;7.20;99.90;;;;;;5087126;28;20036;-75
2021/03/23 08:09:11;;;;;;;72.95;36.40;;;7.20;99.90;;;;;;5087849;28;20460;-79
2021/03/23 08:12:16;;;;;;;72.95;34.25;;;7.30;99.90;;;;;;5088977;28;20929;-78
2021/03/23 08:15:04;;;;;;;58.97;33.00;;;7.30;99.90;;;;;;5071817;28;20044;-79
2021/03/23 08:17:42;;;;;;;56.83;32.88;;;7.30;99.90;;;;;;5088433;28;20563;-79
2021/03/23 08:20:11;;;;;;;56.78;32.15;;;7.40;99.90;;;;;;5089317;28;20036;-75
2021/03/23 08:23:00;;;;;;;57.10;33.55;;;7.40;99.90;;;;;;5053003;28;20044;-75
2021/03/23 08:25:47;;;;;;;56.30;31.60;;;7.40;99.90;;;;;;5067590;28;20024;-78
2021/03/23 08:28:39;;;;;;;52.63;31.27;;;7.50;99.90;;;;;;5088106;28;20041;-75
2021/03/23 08:31:14;;;;;;;48.58;30.38;;;7.50;99.90;;;;;;5073850;28;20044;-78
2021/03/23 08:34:15;;;;;;;51.47;30.23;;;7.50;99.90;;;;;;5069494;28;20062;-75
2021/03/23 08:37:02;;;;;;;51.75;29.50;;;7.60;99.90;;;;;;5070121;28;20031;-74
2021/03/23 08:40:03;;;;;;;43.38;26.40;;;7.60;99.90;;;;;;5057852;28;20032;-75
2021/03/23 08:42:29;;;;;;;47.65;28.10;;;7.60;99.90;;;;;;5090650;28;20032;-75
2021/03/23 08:44:59;;;;;;;50.78;28.00;;;7.60;99.90;;;;;;5072776;28;20449;-79
2021/03/23 08:47:47;;;;;;;48.20;28.35;;;7.60;99.90;;;;;;5092011;28;20566;-78
2021/03/23 08:50:41;;;;;;;44.38;26.17;;;7.70;99.90;;;;;;5090432;28;20361;-80
2021/03/23 08:53:28;;;;;;;42.57;25.87;;;7.70;99.90;;;;;;5070056;28;20087;-80
2021/03/23 08:55:55;;;;;;;43.13;27.25;;;8.40;99.90;;;;;;5090352;28;20286;-75
2021/03/23 09:01:26;;;;;;;43.63;25.65;;;7.70;99.90;;;;;;5091631;28;20507;-80
2021/03/23 09:04:04;;;;;;;42.35;26.38;;;7.70;99.90;;;;;;5081069;28;20032;-81
2021/03/23 09:06:50;;;;;;;37.47;24.85;;;8.00;99.90;;;;;;5076631;28;20028;-75
2021/03/23 09:09:19;;;;;;;40.10;27.35;;;7.70;99.70;;;;;;5090247;28;20088;-80
2021/03/23 09:12:06;;;;;;;39.80;25.42;;;7.80;99.90;;;;;;5092804;28;20043;-75
2021/03/23 09:14:53;;;;;;;39.35;26.48;;;7.90;99.90;;;;;;5073662;28;20028;-79
2021/03/23 09:17:34;;;;;;;38.95;26.23;;;7.80;99.90;;;;;;5091822;28;20048;-75
2021/03/23 09:20:00;;;;;;;41.05;26.33;;;8.00;99.90;;;;;;5076214;28;20048;-81
2021/03/23 09:22:44;;;;;;;40.42;24.85;;;7.90;99.90;;;;;;5093113;28;20051;-80
2021/03/23 09:25:47;;;;;;;33.95;23.98;;;7.80;99.70;;;;;;5073358;28;20047;-75
2021/03/23 09:28:45;;;;;;;39.40;25.08;;;8.00;99.00;;;;;;5075683;28;20051;-79
2021/03/23 09:31:18;;;;;;;33.92;24.15;;;8.00;98.30;;;;;;5061165;28;20040;-75
2021/03/23 09:33:49;;;;;;;34.88;23.52;;;8.00;98.90;;;;;;5073938;28;20197;-75
2021/03/23 09:36:35;;;;;;;34.53;22.60;;;8.00;98.90;;;;;;5053212;28;20052;-79
2021/03/23 09:39:16;;;;;;;36.00;24.05;;;8.00;98.70;;;;;;5071708;28;20105;-75
2021/03/23 09:41:51;;;;;;;41.47;23.88;;;8.10;98.20;;;;;;5090655;28;20036;-74
2021/03/23 09:44:17;;;;;;;30.80;22.77;;;8.10;98.40;;;;;;5090737;28;20036;-74
2021/03/23 09:46:45;;;;;;;36.40;23.33;;;8.10;98.40;;;;;;5092578;28;20176;-79
2021/03/23 09:49:15;;;;;;;36.33;24.13;;;8.10;98.20;;;;;;5094839;28;20036;-79
2021/03/23 09:52:05;;;;;;;37.33;24.25;;;8.10;98.30;;;;;;5092090;28;20046;-74
2021/03/23 09:54:39;;;;;;;38.03;24.42;;;8.20;98.30;;;;;;5072726;28;20047;-74
2021/03/23 09:57:16;;;;;;;40.80;24.80;;;8.40;98.50;;;;;;5057382;28;20052;-74
2021/03/23 09:59:51;;;;;;;38.95;24.25;;;8.80;98.50;;;;;;5090851;28;20043;-79
2021/03/23 10:02:23;;;;;;;34.05;23.75;;;8.50;98.40;;;;;;5069019;28;20407;-83
2021/03/23 10:04:52;;;;;;;33.40;23.98;;;8.60;98.20;;;;;;5075015;28;20032;-79
2021/03/23 10:07:36;;;;;;;35.60;23.75;;;8.60;98.10;;;;;;5093789;28;20044;-78
2021/03/23 10:10:16;;;;;;;35.58;23.70;;;8.70;97.60;;;;;;5094157;28;20122;-75
2021/03/23 10:12:45;;;;;;;34.63;24.02;;;8.70;98.10;;;;;;5059078;28;20126;-75
2021/03/23 10:15:36;;;;;;;35.03;24.23;;;8.80;97.70;;;;;;5059277;28;20442;-78
2021/03/23 10:18:29;;;;;;;33.83;24.40;;;8.90;97.30;;;;;;5075581;28;20035;-75
2021/03/23 10:21:10;;;;;;;37.13;23.38;;;9.50;97.40;;;;;;5074810;28;20479;-78
2021/03/23 10:23:55;;;;;;;34.25;23.67;;;9.00;97.20;;;;;;5075678;28;20111;-78
2021/03/23 10:26:35;;;;;;;39.38;23.48;;;9.10;96.90;;;;;;5075647;28;20044;-75
2021/03/23 10:29:24;;;;;;;34.63;24.10;;;9.20;97.10;;;;;;5075692;28;20540;-77
2021/03/23 10:31:56;;;;;;;36.92;24.88;;;9.30;96.80;;;;;;5061547;28;20032;-78
2021/03/23 10:34:26;;;;;;;32.58;22.95;;;9.40;97.00;;;;;;5090478;28;20365;-78
2021/03/23 10:37:01;;;;;;;35.22;23.98;;;9.50;96.50;;;;;;5093386;28;20048;-78
2021/03/23 10:39:38;;;;;;;36.47;24.17;;;9.50;96.40;;;;;;5059894;28;20115;-78
2021/03/23 10:42:26;;;;;;;38.10;23.75;;;9.60;96.30;;;;;;5075265;28;20062;-76
2021/03/23 10:45:21;;;;;;;33.95;23.70;;;9.70;95.00;;;;;;5075121;28;20047;-79
2021/03/23 10:47:57;;;;;;;33.22;23.73;;;9.70;95.50;;;;;;5093404;28;20510;-76
2021/03/23 10:50:26;;;;;;;34.30;23.77;;;9.80;95.90;;;;;;5074854;28;20102;-79
2021/03/23 10:53:07;;;;;;;38.35;24.92;;;9.80;95.70;;;;;;5058117;28;20093;-79
2021/03/23 10:55:35;;;;;;;35.42;24.63;;;9.80;95.70;;;;;;5087915;28;20483;-76
2021/03/23 10:58:23;;;;;;;37.80;24.55;;;9.90;95.80;;;;;;5093089;28;20067;-79
2021/03/23 11:01:10;;;;;;;32.65;23.65;;;10.00;95.50;;;;;;5089667;28;20032;-87
2021/03/23 11:03:44;;;;;;;35.55;24.58;;;10.00;94.90;;;;;;5080945;28;20101;-86
2021/03/23 11:06:45;;;;;;;35.40;24.73;;;10.30;95.40;;;;;;5079569;28;20036;-76
2021/03/23 11:09:15;;;;;;;39.15;25.20;;;10.30;95.10;;;;;;4979552;28;20038;-76
2021/03/23 11:11:46;;;;;;;34.85;24.48;;;10.30;95.50;;;;;;5057626;28;20089;-79
2021/03/23 11:14:18;;;;;;;37.75;25.65;;;10.30;95.30;;;;;;5054324;28;20396;-80
2021/03/23 11:16:46;;;;;;;34.33;24.88;;;10.80;95.50;;;;;;5077720;28;20041;-80
2021/03/23 11:19:31;;;;;;;36.40;25.52;;;10.40;94.70;;;;;;5070772;28;20036;-80
2021/03/23 11:21:59;;;;;;;39.38;26.02;;;10.30;94.10;;;;;;5093042;28;20058;-80
2021/03/23 11:24:28;;;;;;;33.55;25.15;;;10.40;94.70;;;;;;5058475;28;20127;-80
2021/03/23 11:26:57;;;;;;;35.47;24.30;;;10.50;94.60;;;;;;5092559;28;20036;-80
2021/03/23 11:29:23;;;;;;;37.50;25.13;;;10.60;94.60;;;;;;5074287;28;20048;-80
2021/03/23 11:31:49;;;;;;;33.03;26.20;;;10.70;94.20;;;;;;5074393;28;20077;-80
2021/03/23 11:34:15;;;;;;;34.13;24.48;;;11.20;94.30;;;;;;5091781;28;20086;-83
2021/03/23 11:36:42;;;;;;;35.42;26.20;;;10.70;93.80;;;;;;5092465;28;20036;-80
2021/03/23 11:39:13;;;;;;;37.08;25.35;;;10.60;93.80;;;;;;5065306;28;20139;-79
2021/03/23 11:41:44;;;;;;;35.00;26.75;;;10.80;93.60;;;;;;5090859;28;20511;-79
2021/03/23 11:44:21;;;;;;;36.20;26.25;;;10.70;93.50;;;;;;5074337;28;20089;-78
2021/03/23 11:46:58;;;;;;;34.65;27.08;;;10.80;93.40;;;;;;5074087;28;20044;-78
2021/03/23 11:49:57;;;;;;;35.42;26.92;;;10.30;93.20;;;;;;5092352;28;20032;-78
2021/03/23 11:52:28;;;;;;;34.15;26.25;;;10.70;93.70;;;;;;5073249;28;20526;-78
2021/03/23 11:54:56;;;;;;;42.10;27.33;;;10.90;93.90;;;;;;5073495;28;20036;-76
2021/03/23 11:57:23;;;;;;;36.88;26.23;;;11.00;93.80;;;;;;5079586;28;20094;-74
2021/03/23 11:59:52;;;;;;;39.33;26.38;;;11.10;93.50;;;;;;5069312;28;20036;-76
2021/03/23 12:02:18;;;;;;;40.42;28.35;;;11.20;93.40;;;;;;5089112;28;20052;-75
2021/03/23 12:04:46;;;;;;;38.90;26.35;;;11.30;93.40;;;;;;5093704;28;20095;-75
2021/03/23 12:07:33;;;;;;;38.58;27.23;;;11.30;93.30;;;;;;5073880;28;20036;-75
2021/03/23 12:10:05;;;;;;;40.40;28.20;;;11.30;93.00;;;;;;5075110;28;20585;-75
2021/03/23 12:12:40;;;;;;;37.25;25.80;;;11.20;93.00;;;;;;5092665;28;20040;-74
2021/03/23 12:15:31;;;;;;;36.85;27.25;;;11.10;93.00;;;;;;5092930;28;20316;-75
2021/03/23 12:17:59;;;;;;;40.33;26.83;;;11.00;92.60;;;;;;5094517;28;20032;-81
2021/03/23 12:20:29;;;;;;;40.85;26.52;;;10.90;93.60;;;;;;5097817;28;20042;-81
2021/03/23 12:22:55;;;;;;;41.85;27.90;;;10.80;93.80;;;;;;5097660;28;20036;-81
2021/03/23 12:25:23;;;;;;;43.00;27.80;;;10.80;93.70;;;;;;5096915;28;20184;-81
2021/03/23 12:27:50;;;;;;;41.67;25.83;;;10.70;93.60;;;;;;5091069;28;20064;-81
2021/03/23 12:30:22;;;;;;;41.42;26.70;;;10.80;93.80;;;;;;5076284;28;20113;-81
2021/03/23 12:32:48;;;;;;;36.00;26.23;;;10.70;93.40;;;;;;5098214;28;20039;-81
2021/03/23 12:35:23;;;;;;;40.35;27.23;;;10.70;93.60;;;;;;5078259;28;20122;-81
2021/03/23 12:37:52;;;;;;;38.83;26.27;;;10.70;93.40;;;;;;5074526;28;20044;-81
2021/03/23 12:40:21;;;;;;;41.03;26.92;;;10.70;93.60;;;;;;5074812;28;20063;-76
2021/03/23 12:42:48;;;;;;;44.35;28.30;;;10.80;93.60;;;;;;5092988;28;20032;-82
2021/03/23 12:45:30;;;;;;;43.80;27.83;;;10.90;93.60;;;;;;5096780;28;20046;-81
2021/03/23 12:47:57;;;;;;;42.78;27.10;;;10.90;93.50;;;;;;5074595;28;20044;-83
2021/03/23 12:50:23;;;;;;;43.65;26.98;;;10.90;93.20;;;;;;5092035;28;20039;-82
2021/03/23 12:52:51;;;;;;;42.55;27.23;;;10.90;93.20;;;;;;5073486;28;20468;-82
2021/03/23 12:55:24;;;;;;;41.00;29.20;;;11.00;93.40;;;;;;5091869;28;20123;-76
2021/03/23 12:57:56;;;;;;;44.42;29.83;;;11.10;93.20;;;;;;5068386;28;20101;-76
2021/03/23 13:00:33;;;;;;;42.25;28.83;;;11.20;93.10;;;;;;5090478;28;20387;-82
2021/03/23 13:03:00;;;;;;;43.55;28.02;;;11.40;93.20;;;;;;5073680;28;20040;-76
2021/03/23 13:05:28;;;;;;;44.70;29.08;;;11.40;93.00;;;;;;5056712;28;20123;-82
2021/03/23 13:08:02;;;;;;;43.67;30.60;;;11.50;92.90;;;;;;5092906;28;20051;-81
2021/03/23 13:10:35;;;;;;;42.47;30.23;;;11.40;92.80;;;;;;5073639;28;20040;-82
2021/03/23 13:13:13;;;;;;;44.03;29.63;;;11.50;93.20;;;;;;5073221;28;20032;-79
2021/03/23 13:15:41;;;;;;;45.58;29.77;;;11.50;92.80;;;;;;5091757;28;20035;-76
2021/03/23 13:18:12;;;;;;;49.90;29.98;;;11.60;92.90;;;;;;5058319;28;20548;-75
2021/03/23 13:20:41;;;;;;;45.10;30.48;;;11.70;92.60;;;;;;5092696;28;20122;-75